KSCR/SCR METAR and TAF weather

Enter ICAO airport designator
Station Type Date Time Source
KSCR METAR 2020/04/01 23:55 UTC NOAA

KSCR 012355Z AUTO 00000KT 10SM SCT060 OVC070 12/03 A2989 RMK AO2 T01180028 10142 20117


Station Type Date Time Source
KSCR Decoded METAR 2020/04/01 23:55 UTC NOAA

Station name not available
Apr 01, 2020 - 07:55 PM EDT / 2020.04.01 2355 UTC
Wind: Calm:0
Visibility: 10 mile(s):0
Sky conditions: overcast
Temperature: 53.2 F (11.8 C)
Dew Point: 37.0 F (2.8 C)
Relative Humidity: 53%
Pressure (altimeter): 29.89 in. Hg (1012 hPa)
ob: KSCR 012355Z AUTO 00000KT 10SM SCT060 OVC070 12/03 A2989 RMK AO2 T01180028 10142 20117
cycle: 0

Station Type Date Time Source
KSCR TAF UTC NOAA

Error!

Example: see airport list